Terminal Aerodrome Forecast
Issued by NWS Albuquerque, NM

Home | Current Version | Previous Version | Text Only | Print | Product List | Glossary On
Versions: 1 2 3 4 5 6 7 8 9 10 11 12 13 14 15
000
FTUS45 KABQ 021126
TAFABQ
TAF
KABQ 021126Z 0212/0312 08007KT P6SM SCT120
     FM021600 VRB04KT P6SM SCT100
     FM022000 25006KT P6SM VCSH BKN080
     FM022300 27007KT P6SM VCTS BKN060CB
     FM030200 08013KT P6SM VCSH OVC060
     FM030700 10007KT P6SM BKN070=

USA.gov is the U.S. government's official web portal to all federal, state and local government web resources and services.